Time;durP1;ratioP1;P1;durP2;ratioP2;P2;SDS_P1;SDS_P2;PMS_P1;PMS_P2;Temp;Humidity;BMP_temperature;BMP_pressure;BME280_temperature;BME280_humidity;BME280_pressure;Samples;Min_cycle;Max_cycle;Signal;HPM_P1;HPM_P2
2021/12/09 00:00:52;;;;;;;5.30;2.10;;;7.10;90.80;;;7.33;63.20;97358.03;4830786;29;122815;-89
2021/12/09 00:07:10;;;;;;;2.97;1.80;;;6.60;90.70;;;7.08;62.89;97352.25;4837102;29;114276;-86
2021/12/09 00:10:21;;;;;;;3.87;1.97;;;6.70;90.80;;;6.97;63.01;97356.47;4795025;29;124928;-88
2021/12/09 00:12:49;;;;;;;3.27;1.83;;;5.50;90.40;;;6.85;63.21;97353.56;4836784;29;122246;-87
2021/12/09 00:15:29;;;;;;;4.90;2.10;;;6.50;90.90;;;6.82;63.56;97360.53;4836322;29;112771;-87
2021/12/09 00:18:49;;;;;;;4.67;1.87;;;6.40;91.00;;;6.78;63.36;97366.97;4837989;29;112608;-87
2021/12/09 00:21:56;;;;;;;1.83;1.47;;;7.70;91.50;;;6.72;63.91;97363.59;4883654;28;122545;-86
2021/12/09 00:24:25;;;;;;;3.83;1.63;;;5.60;90.70;;;6.66;64.09;97378.56;4871019;29;122311;-87
2021/12/09 00:27:12;;;;;;;4.53;1.77;;;7.60;91.60;;;6.61;63.94;97365.84;4858510;28;115238;-87
2021/12/09 00:29:42;;;;;;;3.13;1.70;;;5.60;90.90;;;6.55;63.92;97371.78;4888034;28;112139;-88
2021/12/09 00:32:09;;;;;;;4.50;1.77;;;5.00;90.70;;;6.52;64.28;97373.25;4872021;29;122782;-86
2021/12/09 00:34:40;;;;;;;5.83;2.00;;;6.10;91.10;;;6.50;64.18;97364.56;4834307;29;123387;-87
2021/12/09 00:37:58;;;;;;;2.90;1.60;;;5.90;91.10;;;6.52;63.68;97372.44;4813092;29;115754;-87
2021/12/09 00:40:45;;;;;;;4.50;1.50;;;6.10;91.20;;;6.47;64.11;97378.09;4818078;29;115407;-88
2021/12/09 00:43:43;;;;;;;2.53;1.57;;;6.00;91.30;;;6.45;63.56;97385.81;4800942;29;122887;-87
2021/12/09 00:50:47;;;;;;;4.10;1.80;;;6.10;91.30;;;6.39;63.82;97369.53;4799746;29;115350;-87
2021/12/09 00:53:27;;;;;;;6.10;1.50;;;4.80;90.80;;;6.42;64.14;97379.03;4825991;29;113717;-87
2021/12/09 00:55:54;;;;;;;5.80;2.10;;;7.40;91.90;;;6.44;63.83;97379.53;4781995;29;122783;-87
2021/12/09 00:58:23;;;;;;;2.67;1.30;;;6.10;91.40;;;6.48;64.47;97383.25;4759794;29;122387;-87
2021/12/09 01:01:14;;;;;;;1.93;1.63;;;5.90;91.40;;;6.54;63.86;97381.97;4732347;29;113053;-87
2021/12/09 01:04:40;;;;;;;8.70;1.60;;;6.10;91.50;;;6.52;64.20;97389.72;4774063;29;113903;-87
2021/12/09 01:07:08;;;;;;;5.07;1.57;;;6.90;91.80;;;6.49;64.02;97390.34;4811922;29;123978;-87
2021/12/09 01:13:59;;;;;;;2.67;1.40;;;4.90;91.00;;;6.57;63.87;97397.78;4817569;29;114915;-88
2021/12/09 01:16:37;;;;;;;3.03;1.77;;;7.00;91.90;;;6.57;64.10;97389.56;4802266;29;113078;-87
2021/12/09 01:19:05;;;;;;;4.33;1.50;;;6.00;91.50;;;6.60;64.16;97386.16;4821280;29;122815;-88
2021/12/09 01:22:10;;;;;;;5.20;1.93;;;6.50;91.70;;;6.64;64.03;97384.41;4855486;29;122911;-88
2021/12/09 01:24:58;;;;;;;2.40;1.70;;;4.90;91.10;;;6.68;63.37;97392.78;4858858;29;112728;-87
2021/12/09 01:27:53;;;;;;;2.83;1.77;;;6.00;91.50;;;6.69;63.51;97393.59;4857663;29;112635;-88
2021/12/09 01:30:28;;;;;;;1.83;1.40;;;6.40;91.70;;;6.70;63.67;97395.22;4871341;29;123526;-87
2021/12/09 01:32:57;;;;;;;3.73;1.37;;;4.90;91.10;;;6.73;63.83;97394.59;4878676;28;123092;-87
2021/12/09 01:35:34;;;;;;;1.90;1.50;;;6.00;91.50;;;6.78;63.62;97397.19;4873559;28;113873;-87
2021/12/09 01:38:42;;;;;;;3.30;2.00;;;6.00;91.50;;;6.79;63.95;97407.00;4879940;28;113810;-87
2021/12/09 01:41:12;;;;;;;4.17;2.10;;;5.30;91.20;;;6.76;63.67;97410.41;4909963;28;123435;-88
2021/12/09 01:43:42;;;;;;;3.50;1.50;;;6.20;91.60;;;6.76;63.81;97405.72;4910032;28;122062;-88
2021/12/09 01:46:22;;;;;;;7.60;1.87;;;5.90;91.50;;;6.78;63.52;97408.16;4910416;28;112925;-88
2021/12/09 01:48:53;;;;;;;2.50;1.70;;;6.10;91.50;;;6.80;63.57;97411.41;4909806;28;114040;-88
2021/12/09 01:51:20;;;;;;;2.73;1.60;;;6.20;91.60;;;6.82;63.85;97418.19;4875679;28;122861;-88
2021/12/09 01:57:52;;;;;;;2.47;1.80;;;5.80;91.40;;;6.79;64.08;97401.53;4835349;29;113934;-87
2021/12/09 02:00:31;;;;;;;2.43;1.70;;;5.80;91.40;;;6.80;63.84;97400.41;4805190;29;112913;-87
2021/12/09 02:02:59;;;;;;;3.03;1.83;;;6.20;91.50;;;6.77;63.74;97399.13;4800709;29;123687;-87
2021/12/09 02:06:00;;;;;;;1.87;1.70;;;6.70;91.60;;;6.81;63.52;97402.00;4780983;29;122127;-88
2021/12/09 02:09:32;;;;;;;2.40;1.80;;;6.30;91.50;;;6.83;63.38;97400.56;4816755;29;112965;-88
2021/12/09 02:12:07;;;;;;;2.60;1.90;;;5.80;91.40;;;6.84;63.68;97412.34;4798814;29;113478;-88
2021/12/09 02:15:15;;;;;;;3.30;2.07;;;6.50;91.70;;;6.88;63.63;97418.00;4800385;29;124025;-88
2021/12/09 02:17:49;;;;;;;3.60;1.73;;;4.90;91.00;;;6.84;63.73;97426.06;4784544;29;124179;-88
2021/12/09 02:20:28;;;;;;;7.87;2.40;;;6.20;91.60;;;6.88;63.31;97424.31;4796333;29;112545;-87
2021/12/09 02:22:58;;;;;;;2.70;2.23;;;5.60;91.30;;;6.88;63.90;97427.06;4784739;29;113206;-88
2021/12/09 02:25:44;;;;;;;2.80;2.07;;;5.50;91.20;;;6.90;63.71;97441.25;4832921;29;123837;-88
2021/12/09 02:28:33;;;;;;;2.70;1.87;;;6.20;91.60;;;6.93;63.56;97450.78;4857022;29;123270;-88
2021/12/09 02:31:02;;;;;;;2.77;2.07;;;5.90;91.40;;;6.89;63.83;97452.56;4862987;29;114068;-88
2021/12/09 02:37:13;;;;;;;3.33;1.93;;;5.70;91.40;;;6.89;64.23;97458.88;4855549;29;125092;-87
2021/12/09 02:39:44;;;;;;;4.20;2.50;;;6.20;91.60;;;6.88;63.81;97462.75;4829532;29;122276;-88
2021/12/09 02:42:12;;;;;;;3.90;2.37;;;5.80;91.50;;;6.87;64.17;97477.59;4835854;29;113293;-87
2021/12/09 02:44:45;;;;;;;2.70;2.20;;;6.20;91.60;;;6.89;63.65;97469.84;4852430;29;112497;-87
2021/12/09 02:47:13;;;;;;;4.13;2.30;;;6.30;91.70;;;6.90;64.44;97468.69;4805470;29;124190;-86
2021/12/09 02:49:40;;;;;;;7.23;2.83;;;6.10;91.70;;;6.93;64.14;97468.09;4807758;29;122369;-88
2021/12/09 02:53:04;;;;;;;5.10;2.70;;;6.30;91.70;;;6.94;63.77;97460.66;4821028;29;114023;-88
2021/12/09 02:55:35;;;;;;;5.80;2.93;;;5.10;91.30;;;6.85;64.01;97460.63;4851925;29;112747;-88
2021/12/09 02:58:22;;;;;;;4.77;2.70;;;5.20;91.20;;;6.81;63.87;97456.91;4839947;29;123954;-87
2021/12/09 03:00:56;;;;;;;7.53;2.97;;;5.00;91.20;;;6.78;64.05;97452.06;4838374;29;122619;-88
2021/12/09 03:03:25;;;;;;;8.13;2.83;;;7.40;92.20;;;6.73;64.78;97455.78;4827204;29;112892;-86
2021/12/09 03:05:56;;;;;;;5.40;2.87;;;7.40;92.20;;;6.69;63.96;97457.56;4832015;29;115587;-88
2021/12/09 03:09:03;;;;;;;4.70;2.40;;;4.80;91.20;;;6.67;64.75;97450.78;4800775;29;123375;-87
2021/12/09 03:11:47;;;;;;;7.03;2.83;;;5.50;91.50;;;6.60;64.55;97457.50;4799207;29;122692;-88
2021/12/09 03:18:19;;;;;;;7.03;3.10;;;7.40;92.40;;;6.48;64.82;97454.59;4804283;29;114437;-87
2021/12/09 03:24:40;;;;;;;5.73;2.80;;;4.50;91.20;;;6.42;65.18;97461.34;4802555;29;124582;-88
2021/12/09 03:27:38;;;;;;;5.83;2.33;;;6.00;91.90;;;6.45;65.10;97449.75;4766547;29;114993;-88
2021/12/09 03:30:15;;;;;;;4.90;2.90;;;6.60;92.20;;;6.45;65.07;97455.25;4765360;29;113893;-87
2021/12/09 03:36:54;;;;;;;9.90;2.80;;;5.30;91.70;;;6.41;64.72;97467.97;4783069;29;124199;-87
2021/12/09 03:47:29;;;;;;;4.63;2.63;;;6.20;92.10;;;6.35;64.70;97469.25;4732331;29;124475;-87
2021/12/09 03:50:37;;;;;;;9.77;3.43;;;5.90;91.90;;;6.37;64.77;97478.78;4767657;29;122804;-87
2021/12/09 03:54:00;;;;;;;10.70;3.10;;;6.20;92.10;;;6.38;65.55;97476.84;4733000;29;114146;-88
2021/12/09 04:00:18;;;;;;;6.33;3.33;;;5.00;91.70;;;6.34;65.09;97479.41;4768643;29;124400;-86
2021/12/09 04:03:05;;;;;;;8.27;2.97;;;5.80;92.00;;;6.34;64.92;97487.63;4770073;29;122887;-88
2021/12/09 04:05:35;;;;;;;8.13;2.77;;;5.90;92.00;;;6.38;64.84;97483.13;4765734;29;113130;-88
2021/12/09 04:08:15;;;;;;;4.93;3.20;;;5.80;92.10;;;6.39;64.97;97486.66;4746692;29;112782;-87
2021/12/09 04:11:53;;;;;;;6.97;3.53;;;5.60;91.90;;;6.43;64.83;97490.41;4770315;29;122832;-87
2021/12/09 04:18:10;;;;;;;10.10;3.67;;;4.70;91.50;;;6.40;64.78;97485.56;4810287;29;114703;-87
2021/12/09 04:20:39;;;;;;;7.37;3.40;;;6.00;92.00;;;6.42;64.95;97491.50;4839184;29;112779;-87
2021/12/09 04:23:07;;;;;;;4.40;2.67;;;5.90;91.90;;;6.42;64.48;97483.28;4811700;29;122640;-87
2021/12/09 04:33:12;;;;;;;11.73;3.10;;;5.20;91.60;;;6.35;64.64;97489.25;4803077;29;115295;-87
2021/12/09 04:36:07;;;;;;;6.97;3.23;;;5.10;91.50;;;6.39;64.80;97492.97;4818031;29;123506;-87
2021/12/09 04:39:21;;;;;;;6.53;2.80;;;4.90;91.40;;;6.38;65.11;97494.09;4810073;29;123034;-87
2021/12/09 04:41:56;;;;;;;11.77;2.97;;;5.90;91.90;;;6.37;64.67;97500.72;4852969;29;114093;-87
2021/12/09 04:44:23;;;;;;;4.70;2.87;;;5.80;91.80;;;6.38;64.86;97509.75;4836873;29;112576;-87
2021/12/09 04:47:05;;;;;;;7.17;3.10;;;5.90;91.80;;;6.40;64.63;97522.03;4820426;29;123474;-87
2021/12/09 04:49:35;;;;;;;4.67;2.47;;;4.90;91.40;;;6.40;64.49;97533.00;4807729;29;122510;-87
2021/12/09 04:52:22;;;;;;;5.20;3.10;;;5.50;91.60;;;6.42;64.12;97543.63;4831834;29;114734;-87
2021/12/09 04:55:16;;;;;;;5.00;2.57;;;4.40;91.10;;;6.43;64.73;97537.03;4820292;29;113363;-88
2021/12/09 04:58:41;;;;;;;4.90;2.73;;;4.90;91.40;;;6.45;64.00;97537.53;4790627;29;123012;-87
2021/12/09 05:01:12;;;;;;;5.93;2.43;;;4.70;91.20;;;6.41;64.34;97542.03;4835555;29;123420;-87
2021/12/09 05:03:58;;;;;;;7.10;3.00;;;5.40;91.50;;;6.41;63.84;97550.25;4832615;29;112576;-87
2021/12/09 05:07:22;;;;;;;6.17;2.80;;;5.90;91.60;;;6.39;64.21;97560.72;4816027;29;114437;-87
2021/12/09 05:10:08;;;;;;;5.20;2.30;;;4.50;91.00;;;6.37;64.03;97554.78;4832144;29;123355;-87
2021/12/09 05:12:58;;;;;;;6.03;2.90;;;5.90;91.50;;;6.36;64.34;97555.88;4781105;29;123321;-88
2021/12/09 05:16:02;;;;;;;5.73;2.60;;;5.80;91.50;;;6.36;63.89;97553.13;4779863;29;112667;-87
2021/12/09 05:18:35;;;;;;;6.13;2.70;;;4.50;91.00;;;6.35;64.26;97548.78;4787590;29;113762;-88
2021/12/09 05:21:23;;;;;;;6.93;2.50;;;6.20;91.70;;;6.41;64.59;97558.50;4797585;29;122712;-88
2021/12/09 05:24:12;;;;;;;4.00;2.30;;;5.70;91.50;;;6.47;63.84;97567.38;4780186;29;122072;-88
2021/12/09 05:26:45;;;;;;;4.20;2.10;;;4.60;91.00;;;6.49;64.34;97571.44;4763206;29;113566;-88
2021/12/09 05:29:15;;;;;;;5.30;2.30;;;5.90;91.60;;;6.57;63.59;97589.06;4780491;29;113365;-88
2021/12/09 05:35:08;;;;;;;3.13;2.57;;;5.50;91.30;;;6.58;63.59;97597.00;4808548;29;124221;-88
2021/12/09 05:37:35;;;;;;;3.33;1.67;;;5.50;91.30;;;6.56;63.69;97604.72;4801244;29;113039;-88
2021/12/09 05:40:01;;;;;;;7.17;2.30;;;6.00;91.50;;;6.61;63.91;97606.53;4796715;29;113291;-88
2021/12/09 05:42:28;;;;;;;5.67;2.33;;;7.50;92.10;;;6.62;63.41;97608.94;4779160;29;122117;-88
2021/12/09 05:44:57;;;;;;;2.97;1.93;;;6.10;91.60;;;6.68;63.34;97615.09;4831240;29;122213;-88
2021/12/09 05:47:30;;;;;;;3.80;2.13;;;6.20;91.50;;;6.73;63.79;97611.41;4846582;29;112523;-88
2021/12/09 05:50:37;;;;;;;3.90;2.13;;;6.00;91.40;;;6.77;63.31;97615.13;4844962;29;114172;-89
2021/12/09 05:54:00;;;;;;;2.40;1.73;;;7.50;92.00;;;6.79;63.62;97608.19;4809690;29;122533;-88
2021/12/09 05:56:27;;;;;;;3.93;1.90;;;5.60;91.20;;;6.80;63.48;97620.03;4847258;29;122141;-88
2021/12/09 05:58:54;;;;;;;3.57;2.27;;;5.70;91.30;;;6.84;63.05;97621.00;4845435;29;112747;-89
2021/12/09 06:01:22;;;;;;;5.90;3.20;;;5.10;91.10;;;6.85;63.69;97617.94;4833669;29;112525;-88
2021/12/09 06:03:49;;;;;;;4.30;2.23;;;6.20;91.60;;;6.85;63.49;97617.94;4845774;29;122558;-89
2021/12/09 06:06:18;;;;;;;5.30;2.13;;;7.40;91.90;;;6.82;63.14;97625.97;4838983;29;122161;-89
2021/12/09 06:08:46;;;;;;;2.70;1.60;;;7.80;91.90;;;6.79;62.91;97623.88;4829314;29;114034;-88
2021/12/09 06:11:34;;;;;;;4.27;2.53;;;6.20;91.20;;;6.75;62.80;97617.41;4844248;29;112516;-88
2021/12/09 06:14:58;;;;;;;7.13;2.60;;;6.10;91.10;;;6.71;62.94;97617.22;4829308;29;123420;-88
2021/12/09 06:17:32;;;;;;;3.17;2.00;;;6.40;91.20;;;6.65;62.92;97618.47;4853520;29;123282;-89
2021/12/09 06:20:00;;;;;;;6.57;2.17;;;6.10;91.00;;;6.60;62.94;97624.91;4828651;29;114184;-90
2021/12/09 06:22:27;;;;;;;5.07;2.13;;;7.10;91.50;;;6.62;63.51;97617.19;4825613;29;114692;-89
2021/12/09 06:24:54;;;;;;;3.87;2.13;;;6.10;91.10;;;6.68;63.52;97628.03;4827966;29;122337;-88
2021/12/09 06:31:21;;;;;;;5.90;2.30;;;6.30;91.30;;;6.73;62.82;97619.66;4891405;28;114177;-89
2021/12/09 06:33:50;;;;;;;4.57;2.40;;;6.20;91.20;;;6.71;62.83;97617.22;4875948;28;112682;-91
2021/12/09 06:36:40;;;;;;;3.60;2.37;;;7.40;91.70;;;6.75;63.16;97617.41;4858237;28;124066;-88
2021/12/09 06:39:07;;;;;;;3.50;2.10;;;6.20;91.10;;;6.71;62.62;97622.69;4889685;28;123218;-88
2021/12/09 06:41:54;;;;;;;4.43;2.20;;;4.60;90.40;;;6.71;62.72;97610.91;4863159;28;113976;-88
2021/12/09 06:44:44;;;;;;;3.20;2.50;;;6.20;91.00;;;6.70;62.98;97621.09;4848756;28;112185;-88
2021/12/09 06:47:12;;;;;;;2.47;1.80;;;6.20;90.90;;;6.67;62.86;97624.47;4871446;28;122842;-88
2021/12/09 06:49:40;;;;;;;4.50;2.10;;;6.10;90.90;;;6.64;62.52;97617.69;4878486;28;123082;-87
2021/12/09 06:55:49;;;;;;;5.83;2.33;;;6.20;90.80;;;6.56;62.78;97610.22;4897616;28;114270;-88
2021/12/09 06:58:15;;;;;;;2.27;1.80;;;7.50;91.30;;;6.53;62.16;97613.59;4860493;28;124841;-88
2021/12/09 07:00:46;;;;;;;6.10;2.13;;;6.00;90.70;;;6.53;62.18;97610.84;4876392;28;122761;-87
2021/12/09 07:03:32;;;;;;;3.13;1.80;;;6.10;90.60;;;6.55;62.46;97613.25;4879659;28;113773;-88
2021/12/09 07:06:05;;;;;;;4.67;1.90;;;6.10;90.60;;;6.52;62.25;97606.47;4880988;28;112631;-87
2021/12/09 07:08:35;;;;;;;4.30;1.73;;;6.10;90.70;;;6.50;62.22;97616.97;4880940;28;122906;-87
2021/12/09 07:11:02;;;;;;;3.03;1.90;;;6.00;90.60;;;6.48;62.55;97613.72;4863623;28;123550;-86
2021/12/09 07:13:30;;;;;;;3.70;2.00;;;6.10;90.60;;;6.47;62.01;97617.56;4875751;28;115041;-87
2021/12/09 07:16:03;;;;;;;5.80;2.47;;;6.10;90.50;;;6.46;62.01;97615.97;4859431;29;114551;-87
2021/12/09 07:18:30;;;;;;;9.07;2.30;;;6.00;90.40;;;6.43;62.08;97627.56;4825081;29;121959;-88
2021/12/09 07:20:57;;;;;;;6.90;2.63;;;5.90;90.50;;;6.43;62.33;97627.56;4828389;29;121808;-88
2021/12/09 07:23:24;;;;;;;4.33;2.13;;;7.60;91.10;;;6.41;62.41;97621.59;4824366;29;113142;-88
2021/12/09 07:25:53;;;;;;;3.07;2.17;;;6.00;90.40;;;6.41;62.00;97630.63;4850243;29;112832;-87
2021/12/09 07:28:19;;;;;;;4.50;1.70;;;7.10;90.80;;;6.43;61.94;97627.56;4841949;29;123681;-85
2021/12/09 07:30:47;;;;;;;4.33;2.20;;;6.50;90.70;;;6.43;61.70;97644.03;4852405;29;123127;-88
2021/12/09 07:33:14;;;;;;;5.77;2.00;;;5.90;90.30;;;6.42;61.77;97642.41;4837284;29;113457;-82
2021/12/09 07:35:40;;;;;;;7.03;2.23;;;5.90;90.30;;;6.43;61.51;97640.50;4839650;29;111993;-81
2021/12/09 07:38:07;;;;;;;3.10;1.90;;;5.10;90.00;;;6.43;61.43;97638.56;4844410;29;122514;-89
2021/12/09 07:40:36;;;;;;;4.53;1.77;;;6.00;90.40;;;6.46;61.66;97640.66;4846690;29;122097;-84
2021/12/09 07:43:06;;;;;;;3.60;2.17;;;5.90;90.30;;;6.53;62.04;97643.78;4846571;29;114049;-87
2021/12/09 07:45:32;;;;;;;4.77;2.10;;;6.00;90.40;;;6.53;61.88;97649.28;4818356;29;112737;-89
2021/12/09 07:48:00;;;;;;;3.60;2.10;;;6.00;90.30;;;6.52;61.83;97652.31;4872458;28;122347;-89
2021/12/09 07:50:46;;;;;;;3.83;2.10;;;6.60;90.50;;;6.52;61.07;97653.13;4901927;28;122675;-89
2021/12/09 07:53:17;;;;;;;7.30;2.63;;;4.90;89.80;;;6.52;61.74;97664.09;4901947;28;112589;-87
2021/12/09 07:55:52;;;;;;;3.17;1.90;;;5.90;90.30;;;6.50;61.75;97665.53;4880149;28;112063;-89
2021/12/09 07:58:22;;;;;;;6.20;2.30;;;6.00;90.20;;;6.47;61.65;97660.66;4886747;28;123277;-87
2021/12/09 08:00:49;;;;;;;2.40;2.10;;;6.00;90.20;;;6.45;61.94;97663.75;4866781;28;121880;-88
2021/12/09 08:03:21;;;;;;;8.37;2.70;;;6.00;90.10;;;6.42;61.59;97664.34;4889698;28;113651;-87
2021/12/09 08:05:48;;;;;;;6.00;3.00;;;5.90;90.10;;;6.41;61.46;97662.75;4889783;28;112936;-88
2021/12/09 08:08:17;;;;;;;3.70;2.23;;;6.00;90.10;;;6.37;61.94;97665.31;4889848;28;123058;-88
2021/12/09 08:11:21;;;;;;;4.87;2.90;;;5.90;90.10;;;6.36;61.56;97665.59;4868306;28;122815;-88
2021/12/09 08:13:49;;;;;;;7.73;2.50;;;4.70;89.30;;;6.32;61.34;97668.19;4880656;28;113651;-89
2021/12/09 08:16:17;;;;;;;4.30;2.23;;;5.80;90.40;;;6.31;61.39;97673.97;4859760;28;112651;-89
2021/12/09 08:18:54;;;;;;;9.03;2.57;;;5.80;90.10;;;6.31;61.96;97671.22;4903246;28;122122;-88
2021/12/09 08:21:25;;;;;;;7.07;2.43;;;5.90;90.20;;;6.32;61.68;97670.13;4875016;28;122714;-89
2021/12/09 08:23:54;;;;;;;7.33;2.20;;;5.00;89.70;;;6.33;61.67;97680.75;4866383;28;113581;-90
2021/12/09 08:26:22;;;;;;;4.57;2.37;;;6.90;90.60;;;6.32;61.67;97673.66;4880615;28;112199;-89
2021/12/09 08:28:49;;;;;;;4.80;2.10;;;5.90;90.10;;;6.32;61.68;97676.41;4886198;28;123249;-89
2021/12/09 08:31:17;;;;;;;9.13;2.50;;;5.90;90.20;;;6.36;61.84;97679.31;4867159;28;123040;-87
2021/12/09 08:33:44;;;;;;;3.97;2.10;;;7.50;90.80;;;6.39;61.62;97682.28;4887101;28;113003;-89
2021/12/09 08:36:13;;;;;;;4.23;2.10;;;6.70;90.50;;;6.42;61.89;97686.28;4881559;28;113069;-89
2021/12/09 08:38:41;;;;;;;5.87;2.43;;;6.00;90.20;;;6.46;61.97;97683.75;4866223;28;122453;-88
2021/12/09 08:41:27;;;;;;;4.60;2.23;;;5.90;90.30;;;6.50;61.45;97680.09;4876145;28;122033;-89
2021/12/09 08:43:55;;;;;;;6.60;2.73;;;6.00;90.20;;;6.52;61.14;97688.78;4839125;29;112933;-87
2021/12/09 08:46:21;;;;;;;7.37;2.70;;;6.00;90.20;;;6.53;61.29;97684.09;4855441;29;113593;-88
2021/12/09 08:48:48;;;;;;;8.03;2.40;;;4.60;89.20;;;6.55;62.00;97690.91;4852726;29;124018;-88
2021/12/09 08:51:16;;;;;;;7.27;2.57;;;6.10;90.20;;;6.57;61.75;97691.41;4843831;29;122718;-87
2021/12/09 08:53:42;;;;;;;5.67;2.37;;;6.10;90.20;;;6.60;61.51;97701.75;4834293;29;113419;-88
2021/12/09 08:56:12;;;;;;;5.70;2.37;;;7.20;90.60;;;6.63;61.71;97706.59;4853401;29;113643;-87
2021/12/09 08:58:39;;;;;;;4.87;2.20;;;6.80;90.40;;;6.67;61.25;97703.25;4852889;29;122030;-88
2021/12/09 09:01:26;;;;;;;4.10;2.30;;;6.20;90.30;;;6.77;61.38;97711.22;4835062;29;123259;-90
2021/12/09 09:03:53;;;;;;;5.53;2.20;;;6.20;90.30;;;6.77;61.01;97706.56;4836479;29;112802;-87
2021/12/09 09:06:20;;;;;;;5.17;2.20;;;6.20;90.40;;;6.80;61.07;97708.66;4849970;29;113504;-88
2021/12/09 09:08:57;;;;;;;5.00;2.63;;;6.20;90.30;;;6.83;61.65;97702.53;4837432;29;123129;-88
2021/12/09 09:11:25;;;;;;;4.40;2.60;;;7.50;90.70;;;6.85;61.20;97710.44;4855419;28;123204;-88
2021/12/09 09:13:51;;;;;;;5.57;2.33;;;6.30;90.20;;;6.87;61.21;97710.94;4852309;28;112894;-87
2021/12/09 09:16:18;;;;;;;3.30;2.20;;;6.40;90.20;;;6.89;61.11;97719.69;4887718;28;113478;-89
2021/12/09 09:18:46;;;;;;;3.37;2.37;;;6.40;90.20;;;6.92;61.21;97716.31;4876722;28;124156;-90
2021/12/09 09:21:13;;;;;;;4.50;2.37;;;5.00;89.30;;;6.96;61.30;97727.47;4875053;28;122246;-90
2021/12/09 09:24:03;;;;;;;4.20;2.40;;;6.40;90.20;;;7.01;60.80;97730.06;4878208;28;113749;-90
2021/12/09 09:26:31;;;;;;;5.70;2.30;;;6.50;90.20;;;6.99;60.99;97722.16;4867022;28;113465;-89
2021/12/09 09:29:01;;;;;;;4.80;2.40;;;6.50;90.20;;;7.01;60.72;97727.34;4861373;28;122871;-90
2021/12/09 09:31:30;;;;;;;5.03;2.80;;;6.40;90.10;;;7.04;61.26;97724.78;4871624;28;123012;-88
2021/12/09 09:34:17;;;;;;;3.10;2.17;;;6.50;90.10;;;7.06;60.51;97728.00;4882734;28;112903;-89
2021/12/09 09:36:44;;;;;;;4.50;2.73;;;6.60;90.10;;;7.05;60.58;97725.59;4856951;28;113411;-88
2021/12/09 09:39:19;;;;;;;2.87;2.10;;;6.50;90.00;;;7.08;60.54;97741.44;4859042;28;123890;-89
2021/12/09 09:41:59;;;;;;;7.47;2.43;;;6.50;90.00;;;7.12;61.00;97733.34;4875433;28;123771;-89
2021/12/09 09:44:29;;;;;;;5.97;2.77;;;6.60;90.10;;;7.11;60.54;97735.31;4866855;28;114195;-88
2021/12/09 09:46:59;;;;;;;6.23;2.80;;;6.60;90.00;;;7.11;61.13;97745.47;4873392;28;115572;-87
2021/12/09 09:49:45;;;;;;;4.53;2.50;;;6.60;89.90;;;7.11;61.02;97750.97;4884905;28;123194;-89
2021/12/09 09:52:13;;;;;;;11.23;2.93;;;6.60;89.80;;;7.10;60.54;97749.38;4863818;28;121963;-87
2021/12/09 09:54:41;;;;;;;8.47;2.80;;;6.60;89.70;;;7.11;61.02;97748.22;4856180;28;113381;-88
2021/12/09 09:57:09;;;;;;;6.30;2.70;;;6.60;90.10;;;7.14;60.84;97750.34;4852956;28;113948;-87
2021/12/09 09:59:40;;;;;;;3.70;2.57;;;8.10;90.50;;;7.14;60.13;97750.34;4842029;28;122589;-87
2021/12/09 10:02:08;;;;;;;5.93;2.17;;;6.60;89.60;;;7.14;60.73;97756.63;4851606;28;123405;-86
2021/12/09 10:04:48;;;;;;;3.10;2.27;;;6.70;89.60;;;7.16;60.39;97753.59;4856713;28;114389;-85
2021/12/09 10:07:21;;;;;;;3.33;2.60;;;6.60;89.50;;;7.19;60.25;97744.72;4875139;28;114332;-86
2021/12/09 10:09:48;;;;;;;4.50;2.07;;;6.70;89.60;;;7.21;60.31;97747.97;4856642;28;122625;-87
2021/12/09 10:12:16;;;;;;;4.40;2.50;;;6.70;89.60;;;7.22;60.10;97746.81;4842691;28;122964;-87
2021/12/09 10:14:51;;;;;;;6.30;2.57;;;6.60;89.60;;;7.24;60.21;97756.38;4851992;28;114360;-87
2021/12/09 10:17:26;;;;;;;3.40;2.30;;;7.70;90.10;;;7.24;60.09;97756.38;4839385;28;112908;-89
2021/12/09 10:19:57;;;;;;;3.70;2.30;;;5.40;88.30;;;7.22;60.09;97749.56;4837904;28;123561;-88
2021/12/09 10:22:34;;;;;;;5.17;2.47;;;7.60;90.10;;;7.24;60.07;97747.31;4855539;28;122955;-87
2021/12/09 10:25:18;;;;;;;4.63;2.53;;;6.80;89.30;;;7.21;59.89;97747.97;4858781;28;113761;-86
2021/12/09 10:28:00;;;;;;;3.57;2.30;;;6.60;89.30;;;7.21;60.66;97747.97;4855931;28;112969;-87
2021/12/09 10:30:29;;;;;;;4.27;2.83;;;8.30;90.30;;;7.19;60.43;97759.25;4855502;28;123496;-86
2021/12/09 10:33:03;;;;;;;3.70;2.50;;;7.70;90.10;;;7.24;60.35;97756.38;4856663;28;123298;-86
2021/12/09 10:35:31;;;;;;;3.40;2.10;;;7.80;90.20;;;7.23;60.28;97763.00;4840528;28;113978;-87
2021/12/09 10:38:03;;;;;;;8.90;2.73;;;6.80;89.40;;;7.25;60.32;97757.19;4854853;28;115426;-86
2021/12/09 10:40:30;;;;;;;4.57;2.87;;;6.70;89.40;;;7.25;60.54;97747.03;4854234;28;123031;-88
2021/12/09 10:43:03;;;;;;;5.60;2.40;;;6.70;89.30;;;7.27;60.13;97741.19;4856885;28;124115;-87
2021/12/09 10:45:35;;;;;;;5.40;2.80;;;6.80;89.30;;;7.25;60.21;97740.69;4855733;28;113950;-88
2021/12/09 10:56:00;;;;;;;4.43;2.17;;;7.90;90.10;;;7.34;60.75;97746.25;4855974;29;114724;-87
2021/12/09 10:58:35;;;;;;;3.37;2.17;;;6.90;89.50;;;7.39;60.57;97740.59;4858690;29;114131;-89
2021/12/09 11:01:07;;;;;;;3.33;2.00;;;6.80;89.50;;;7.42;60.21;97740.78;4834532;28;122340;-88
2021/12/09 11:03:54;;;;;;;2.63;1.90;;;6.80;89.30;;;7.49;60.33;97751.28;4836828;28;123177;-88
2021/12/09 11:06:28;;;;;;;3.17;2.07;;;8.50;90.30;;;7.50;60.42;97742.75;4871920;28;114248;-88
2021/12/09 11:08:58;;;;;;;6.30;2.37;;;7.00;89.40;;;7.53;59.67;97747.59;4858991;28;112475;-88
2021/12/09 11:11:33;;;;;;;4.63;2.10;;;8.10;90.10;;;7.55;59.60;97738.22;4851257;28;123570;-88
2021/12/09 11:14:07;;;;;;;2.70;2.10;;;7.00;89.10;;;7.56;59.84;97729.66;4824595;29;123633;-88
2021/12/09 11:16:50;;;;;;;4.40;2.57;;;7.10;89.20;;;7.59;60.27;97739.22;4853729;28;114270;-88
2021/12/09 11:19:36;;;;;;;6.43;2.30;;;7.10;89.10;;;7.62;59.57;97739.38;4867830;28;113829;-89
2021/12/09 11:22:07;;;;;;;2.70;1.90;;;8.00;89.80;;;7.65;59.69;97726.94;4854718;28;123869;-91
2021/12/09 11:24:47;;;;;;;3.50;2.10;;;7.00;89.00;;;7.71;59.72;97725.66;4857946;28;122911;-90
2021/12/09 11:27:22;;;;;;;2.83;2.10;;;7.10;89.10;;;7.76;59.85;97731.00;4853272;28;114647;-89
2021/12/09 11:29:53;;;;;;;4.03;2.40;;;7.20;89.10;;;7.83;59.53;97730.53;4852926;28;113772;-88
2021/12/09 11:35:26;;;;;;;4.73;2.30;;;7.30;89.10;;;7.94;59.42;97724.41;4871732;28;123424;-87
2021/12/09 11:40:39;;;;;;;5.70;2.60;;;7.40;88.80;;;7.96;59.25;97719.38;4857114;28;113993;-89
2021/12/09 11:43:10;;;;;;;4.40;2.07;;;7.40;88.60;;;7.95;59.00;97709.53;4854438;28;122533;-90
2021/12/09 11:45:44;;;;;;;7.23;2.50;;;7.40;88.50;;;7.99;59.28;97709.69;4854891;28;124015;-89
2021/12/09 11:48:16;;;;;;;3.33;2.23;;;7.40;88.50;;;7.99;59.07;97708.88;4834722;28;113652;-89
2021/12/09 11:51:01;;;;;;;7.27;2.80;;;8.40;89.30;;;7.99;58.78;97704.19;4855098;28;113438;-89
2021/12/09 11:53:33;;;;;;;5.63;2.50;;;7.50;88.20;;;7.99;58.74;97704.19;4855172;28;124517;-87
2021/12/09 11:56:11;;;;;;;6.20;2.17;;;9.20;89.70;;;8.04;59.36;97708.72;4859500;28;122320;-88
2021/12/09 11:58:56;;;;;;;2.60;2.27;;;7.50;88.10;;;8.11;59.11;97706.28;4850118;28;113746;-88
2021/12/09 12:24:46;;;;;;;6.27;2.10;;;8.00;87.40;;;8.55;57.76;97688.66;4855986;28;114817;-87
2021/12/09 12:28:07;;;;;;;8.10;2.30;;;8.00;87.20;;;8.62;58.12;97693.66;4850449;28;124611;-89
2021/12/09 12:42:37;;;;;;;4.10;2.00;;;8.20;85.90;;;8.69;56.67;97688.47;4875467;28;123545;-89
2021/12/09 12:45:16;;;;;;;4.20;2.13;;;9.90;87.10;;;8.76;55.92;97691.53;4858166;28;114149;-89
2021/12/09 12:47:54;;;;;;;3.37;2.00;;;8.30;84.90;;;8.78;55.26;97686.47;4855539;28;113059;-88
2021/12/09 12:50:23;;;;;;;5.20;2.33;;;8.30;84.10;;;8.78;54.61;97688.44;4841563;28;124094;-89
2021/12/09 12:52:53;;;;;;;9.30;2.90;;;8.30;83.10;;;8.82;54.12;97687.47;4873987;28;123252;-89
2021/12/09 12:55:42;;;;;;;5.97;2.33;;;7.50;82.00;;;8.81;54.05;97685.84;4870573;28;112308;-88
2021/12/09 12:58:10;;;;;;;6.23;2.00;;;8.40;82.30;;;8.87;54.29;97689.25;4875329;28;113372;-87
2021/12/09 13:00:47;;;;;;;3.47;2.37;;;8.40;82.60;;;8.97;54.44;97699.06;4877281;28;123954;-89
2021/12/09 13:03:36;;;;;;;5.43;2.23;;;8.50;82.90;;;9.10;54.16;97680.72;4875945;28;123838;-86